Time;durP1;ratioP1;P1;durP2;ratioP2;P2;SDS_P1;SDS_P2;PMS_P1;PMS_P2;Temp;Humidity;BMP_temperature;BMP_pressure;BME280_temperature;BME280_humidity;BME280_pressure;Samples;Min_cycle;Max_cycle;Signal;HPM_P1;HPM_P2
2023/07/31 00:01:08;;;;;;;5.90;4.10;;;;;;;21.74;56.96;98846.35;79888;1292;3011555;-70
2023/07/31 00:03:35;;;;;;;4.00;3.30;;;;;;;21.71;56.89;98841.29;79764;1292;3011862;-71
2023/07/31 00:06:02;;;;;;;4.30;3.10;;;;;;;21.67;56.97;98846.77;78545;1294;3028437;-73
2023/07/31 00:08:29;;;;;;;9.00;3.70;;;;;;;21.68;56.80;98843.08;79854;1291;3013161;-69
2023/07/31 00:10:55;;;;;;;5.80;3.30;;;;;;;21.72;57.03;98842.83;79763;1294;3011504;-67
2023/07/31 00:13:23;;;;;;;6.00;3.50;;;;;;;21.71;57.20;98836.52;78674;1294;3027248;-67
2023/07/31 00:15:50;;;;;;;3.80;3.30;;;;;;;21.69;57.54;98839.60;79830;1291;3013320;-70
2023/07/31 00:18:16;;;;;;;5.30;3.40;;;;;;;21.68;57.69;98837.94;79814;1292;3011737;-70
2023/07/31 00:20:44;;;;;;;10.20;4.00;;;;;;;21.67;57.95;98841.56;78586;1291;3026051;-69
2023/07/31 00:23:10;;;;;;;4.90;3.60;;;;;;;21.66;58.16;98846.92;79851;1291;3013161;-71
2023/07/31 00:25:37;;;;;;;5.70;3.60;;;;;;;21.66;58.14;98848.88;79692;1294;3013056;-70
2023/07/31 00:28:05;;;;;;;8.30;3.50;;;;;;;21.64;58.71;98847.83;78399;1291;3026578;-66
2023/07/31 00:30:32;;;;;;;5.00;3.60;;;;;;;21.64;58.71;98848.73;79868;1294;3014395;-69
2023/07/31 00:32:58;;;;;;;6.40;4.00;;;;;;;21.60;58.72;98846.98;79552;1295;3014213;-69
2023/07/31 00:35:26;;;;;;;7.00;3.50;;;;;;;21.50;60.03;98844.20;78642;1294;3051297;-68
2023/07/31 00:37:52;;;;;;;7.10;3.90;;;;;;;21.44;60.42;98847.39;79751;1291;3012919;-68
2023/07/31 00:40:19;;;;;;;6.20;4.00;;;;;;;21.44;60.57;98847.01;79776;1291;3011585;-69
2023/07/31 00:42:47;;;;;;;4.60;3.80;;;;;;;21.46;60.08;98845.60;78575;1295;3025854;-67
2023/07/31 00:45:15;;;;;;;6.30;3.90;;;;;;;21.44;60.36;98843.27;79781;1294;3012827;-66
2023/07/31 00:47:42;;;;;;;6.20;4.10;;;;;;;21.46;60.66;98845.36;79812;1294;3012940;-68
2023/07/31 00:50:10;;;;;;;5.90;3.60;;;;;;;21.50;60.81;98842.46;78571;1292;3051313;-67
2023/07/31 00:52:37;;;;;;;4.30;3.70;;;;;;;21.53;61.18;98849.11;79860;1292;3012719;-69
2023/07/31 00:55:04;;;;;;;6.70;4.40;;;;;;;21.56;60.87;98843.72;79823;1291;3011635;-71
2023/07/31 00:57:32;;;;;;;5.60;3.90;;;;;;;21.55;61.55;98844.70;78567;1291;3026495;-68
2023/07/31 00:59:59;;;;;;;4.90;4.10;;;;;;;21.53;61.40;98838.20;79766;1295;3013514;-69
2023/07/31 01:02:25;;;;;;;7.80;4.10;;;;;;;21.53;60.74;98844.13;79852;1292;3011543;-68
2023/07/31 01:04:53;;;;;;;7.50;4.00;;;;;;;21.54;60.64;98849.38;78554;1294;3029365;-70
2023/07/31 01:07:45;;;;;;;34.90;16.40;;;;;;;21.57;60.74;98850.75;79831;1292;3015220;-69
2023/07/31 01:10:21;;;;;;;33.50;16.80;;;;;;;21.56;61.05;98850.54;78629;1292;3053556;-68
2023/07/31 01:12:50;;;;;;;29.70;15.20;;;;;;;21.54;60.07;98848.89;78519;1292;3048929;-67
2023/07/31 01:15:17;;;;;;;15.60;9.10;;;;;;;21.57;60.05;98848.45;79772;1294;3012917;-67
2023/07/31 01:17:44;;;;;;;8.30;5.20;;;;;;;21.58;60.22;98848.66;79919;1294;3011737;-69
2023/07/31 01:20:30;;;;;;;13.50;4.90;;;;;;;21.58;60.20;98852.02;78630;1291;3051111;-65
2023/07/31 01:23:36;;;;;;;5.60;4.10;;;;;;;21.61;60.26;98846.89;78397;1294;3056578;-71
2023/07/31 01:26:26;;;;;;;7.50;3.90;;;;;;;21.62;60.34;98851.02;78650;1292;3048420;-69
2023/07/31 01:29:06;;;;;;;8.80;4.00;;;;;;;21.64;61.15;98855.65;78533;1291;3052404;-73
2023/07/31 01:31:35;;;;;;;5.10;4.10;;;;;;;21.63;61.60;98855.55;78561;1290;3050225;-71
2023/07/31 01:34:02;;;;;;;5.20;4.20;;;;;;;21.63;61.34;98856.98;79879;1291;3013476;-70
2023/07/31 01:36:29;;;;;;;6.70;4.50;;;;;;;21.61;61.61;98854.02;79794;1292;3012881;-69
2023/07/31 01:38:59;;;;;;;6.40;4.60;;;;;;;21.62;61.52;98848.45;78511;1291;3051778;-73
2023/07/31 01:41:26;;;;;;;4.70;4.20;;;;;;;21.60;61.64;98849.00;79810;1291;3011612;-64
2023/07/31 01:43:52;;;;;;;5.40;4.50;;;;;;;21.59;61.20;98850.51;79838;1292;3011562;-74
2023/07/31 01:46:20;;;;;;;6.30;4.70;;;;;;;21.59;61.64;98849.48;78552;1290;3048885;-73
2023/07/31 01:48:47;;;;;;;5.60;4.90;;;;;;;21.58;62.50;98850.86;79865;1294;3013109;-67
2023/07/31 01:51:13;;;;;;;7.70;4.90;;;;;;;21.57;63.22;98849.72;79782;1290;3013198;-65
2023/07/31 01:53:41;;;;;;;8.50;4.70;;;;;;;21.52;63.96;98845.93;78605;1291;3027206;-70
2023/07/31 01:56:08;;;;;;;6.40;4.00;;;;;;;21.53;63.90;98849.61;79783;1292;3013462;-74
2023/07/31 01:58:35;;;;;;;6.30;4.90;;;;;;;21.52;64.04;98846.30;79782;1294;3011898;-69
2023/07/31 02:01:03;;;;;;;7.80;4.60;;;;;;;21.50;64.76;98853.29;78733;1291;3049478;-70
2023/07/31 02:03:30;;;;;;;6.00;5.10;;;;;;;21.45;65.30;98851.45;79843;1292;3013179;-70
2023/07/31 02:05:56;;;;;;;7.60;4.60;;;;;;;21.41;65.56;98848.50;79824;1293;3011375;-68
2023/07/31 02:08:26;;;;;;;8.20;4.40;;;;;;;21.39;66.05;98846.18;78570;1292;3051193;-68
2023/07/31 02:10:53;;;;;;;9.90;4.90;;;;;;;21.38;66.46;98845.38;79816;1291;3013387;-67
2023/07/31 02:13:19;;;;;;;11.00;5.60;;;;;;;21.37;66.97;98840.02;79832;1295;3011828;-69
2023/07/31 02:15:47;;;;;;;8.70;4.90;;;;;;;21.36;66.87;98836.55;78558;1294;3026671;-67
2023/07/31 05:28:35;;;;;;;19.20;8.90;;;;;;;23.32;66.24;98837.61;80530;1301;3013594;-71
2023/07/31 05:31:02;;;;;;;15.20;8.80;;;;;;;23.35;65.44;98838.34;79259;1301;3011688;-71
2023/07/31 05:33:29;;;;;;;15.00;8.80;;;;;;;23.38;65.64;98843.11;79341;1299;3011281;-73
2023/07/31 05:35:57;;;;;;;17.60;10.40;;;;;;;23.27;65.69;98843.55;78199;1303;3053973;-69
2023/07/31 05:38:23;;;;;;;18.60;9.30;;;;;;;23.34;65.34;98843.08;79286;1298;3012823;-71
2023/07/31 05:40:50;;;;;;;16.00;9.60;;;;;;;23.50;65.78;98839.67;77175;1295;5919031;-71
2023/07/31 05:43:18;;;;;;;17.10;10.20;;;;;;;23.50;66.30;98837.08;78259;1299;3026453;-73
2023/07/31 05:45:44;;;;;;;12.60;8.70;;;;;;;23.53;66.07;98843.16;79429;1301;3013765;-70
2023/07/31 05:48:11;;;;;;;17.00;9.80;;;;;;;23.47;65.95;98840.28;79696;1298;3011860;-73
2023/07/31 05:50:39;;;;;;;13.90;9.10;;;;;;;23.64;66.05;98840.41;78351;1300;3029471;-73
2023/07/31 05:53:07;;;;;;;14.20;10.00;;;;;;;23.77;66.11;98840.08;79447;1297;3011816;-74
2023/07/31 05:55:34;;;;;;;18.70;9.30;;;;;;;23.81;64.98;98841.44;79427;1301;3013591;-70
2023/07/31 05:58:02;;;;;;;21.40;10.10;;;;;;;23.84;64.77;98841.05;78181;1301;3049874;-72
2023/07/31 06:00:28;;;;;;;18.00;9.20;;;;;;;23.73;64.85;98844.05;79363;1298;3013593;-71
2023/07/31 06:02:55;;;;;;;20.80;9.00;;;;;;;23.86;64.35;98845.02;79529;1301;3011486;-70
2023/07/31 06:05:23;;;;;;;13.60;8.80;;;;;;;23.96;64.33;98847.88;78337;1301;3028897;-67
2023/07/31 06:07:49;;;;;;;14.80;8.50;;;;;;;24.08;64.02;98844.73;79386;1301;3013205;-70
2023/07/31 06:10:15;;;;;;;17.50;8.60;;;;;;;24.13;63.51;98851.52;79542;1298;3011777;-73
2023/07/31 06:12:43;;;;;;;17.80;9.30;;;;;;;24.21;63.75;98846.61;78543;1301;3026260;-71
2023/07/31 06:15:11;;;;;;;14.30;8.50;;;;;;;24.17;63.94;98848.37;79471;1297;3018806;-72
2023/07/31 06:17:37;;;;;;;13.70;8.40;;;;;;;24.15;63.66;98851.66;79461;1299;3011907;-75
2023/07/31 06:20:06;;;;;;;17.30;8.80;;;;;;;24.07;64.01;98855.17;78207;1299;3028378;-74
2023/07/31 06:22:34;;;;;;;11.80;7.60;;;;;;;24.14;64.29;98864.40;79479;1296;3013952;-68
2023/07/31 06:25:00;;;;;;;11.70;8.10;;;;;;;24.17;63.87;98864.02;79482;1295;3011958;-72
2023/07/31 06:27:28;;;;;;;10.70;7.90;;;;;;;24.21;64.27;98861.60;78187;1301;3050542;-73
2023/07/31 06:29:55;;;;;;;12.30;7.70;;;;;;;24.31;64.33;98861.78;79577;1297;3018603;-70
2023/07/31 06:32:21;;;;;;;14.50;8.20;;;;;;;24.39;64.38;98861.14;79486;1300;3011668;-76
2023/07/31 06:34:49;;;;;;;12.20;8.60;;;;;;;24.49;64.87;98865.84;78306;1301;3026954;-73
2023/07/31 06:37:16;;;;;;;11.90;5.70;;;;;;;24.52;63.60;98867.12;79444;1298;3018606;-71
2023/07/31 06:39:42;;;;;;;9.30;5.50;;;;;;;24.48;60.85;98870.52;79471;1295;3011573;-72
2023/07/31 06:42:10;;;;;;;11.80;6.00;;;;;;;24.61;61.08;98865.86;78038;1304;3027647;-70
2023/07/31 06:44:36;;;;;;;10.90;5.50;;;;;;;24.71;61.48;98866.20;79436;1301;3018398;-70
2023/07/31 06:47:03;;;;;;;10.30;5.70;;;;;;;24.75;61.84;98862.91;79385;1301;3012371;-72
2023/07/31 06:49:31;;;;;;;9.20;5.40;;;;;;;24.85;62.06;98864.27;78169;1298;3028398;-73
2023/07/31 06:51:58;;;;;;;12.50;5.60;;;;;;;24.93;61.47;98866.89;79504;1300;3013674;-71
2023/07/31 06:54:24;;;;;;;9.10;5.40;;;;;;;25.07;61.13;98863.95;79384;1300;3012767;-72
2023/07/31 06:56:52;;;;;;;6.20;5.30;;;;;;;25.14;60.65;98862.93;78243;1298;3026311;-71
2023/07/31 06:59:18;;;;;;;11.60;5.10;;;;;;;25.19;60.09;98864.97;79468;1296;3013771;-73
2023/07/31 07:01:45;;;;;;;11.40;5.10;;;;;;;25.16;59.91;98866.59;79454;1298;3011749;-75
2023/07/31 07:04:13;;;;;;;6.90;5.00;;;;;;;25.21;58.83;98868.25;78288;1300;3026658;-69
2023/07/31 07:06:40;;;;;;;9.20;4.70;;;;;;;25.20;59.26;98876.68;79555;1298;3013704;-71
2023/07/31 07:09:06;;;;;;;10.20;5.40;;;;;;;25.18;59.58;98870.50;79682;1295;3011761;-73
2023/07/31 07:11:34;;;;;;;8.40;5.20;;;;;;;25.21;59.73;98873.98;78240;1294;3047526;-71
2023/07/31 07:14:01;;;;;;;7.40;5.10;;;;;;;25.34;60.30;98876.17;79456;1298;3018744;-68
2023/07/31 07:16:28;;;;;;;12.30;5.40;;;;;;;25.42;60.26;98877.34;79562;1295;3011650;-73
2023/07/31 07:18:56;;;;;;;10.10;5.30;;;;;;;25.44;60.12;98877.46;78234;1301;3026646;-73
2023/07/31 07:21:22;;;;;;;8.10;5.10;;;;;;;25.41;60.03;98880.56;79652;1295;3013388;-74
2023/07/31 07:23:49;;;;;;;13.20;5.60;;;;;;;25.58;60.02;98876.58;79589;1295;3011479;-72
2023/07/31 07:26:17;;;;;;;11.60;5.70;;;;;;;25.64;59.85;98879.52;78427;1301;3026782;-69
2023/07/31 07:28:43;;;;;;;7.40;5.40;;;;;;;25.68;59.50;98882.50;79802;1296;3013005;-71
2023/07/31 07:31:09;;;;;;;8.40;5.90;;;;;;;25.81;58.72;98882.48;79474;1298;3011611;-73
2023/07/31 07:33:37;;;;;;;8.50;5.90;;;;;;;25.71;59.01;98885.40;78314;1301;3026266;-71
2023/07/31 07:36:05;;;;;;;6.80;5.40;;;;;;;25.71;59.43;98885.23;79530;1297;3018389;-72
2023/07/31 07:38:32;;;;;;;9.80;5.80;;;;;;;25.72;58.18;98883.05;79496;1296;3011627;-71
2023/07/31 07:40:59;;;;;;;8.60;5.20;;;;;;;25.83;57.94;98882.92;78256;1295;3049387;-72
2023/07/31 07:43:26;;;;;;;10.80;5.30;;;;;;;25.94;58.14;98875.15;79644;1298;3013004;-72
2023/07/31 07:45:53;;;;;;;10.30;4.60;;;;;;;26.07;56.54;98877.02;79493;1298;3013293;-73
2023/07/31 07:48:21;;;;;;;6.80;4.80;;;;;;;26.18;55.45;98878.48;78327;1301;3027284;-74
2023/07/31 07:50:48;;;;;;;11.30;4.70;;;;;;;26.21;55.49;98878.23;79612;1294;3013803;-72
2023/07/31 07:53:15;;;;;;;6.80;4.10;;;;;;;26.35;55.78;98875.38;79553;1294;3011866;-73
2023/07/31 07:55:43;;;;;;;8.80;4.60;;;;;;;26.51;55.01;98874.96;78358;1295;3047912;-73
2023/07/31 07:58:09;;;;;;;7.70;3.90;;;;;;;26.59;53.35;98875.61;79504;1295;3013144;-73
2023/07/31 08:00:36;;;;;;;5.50;3.50;;;;;;;26.61;51.67;98879.17;79583;1301;3013071;-73
2023/07/31 08:03:04;;;;;;;4.00;3.30;;;;;;;26.75;50.73;98875.75;78383;1299;3027343;-74
2023/07/31 08:05:33;;;;;;;7.70;3.10;;;;;;;26.84;51.32;98880.69;79904;1295;3013069;-71
2023/07/31 08:08:03;;;;;;;5.10;3.30;;;;;;;26.93;51.42;98877.14;79097;1297;3011446;-69
2023/07/31 08:10:30;;;;;;;7.50;3.30;;;;;;;27.02;50.97;98876.92;79477;1296;3015140;-70
2023/07/31 08:12:56;;;;;;;8.00;6.00;;;;;;;27.17;50.65;98875.86;79455;1295;3012461;-68
2023/07/31 08:15:24;;;;;;;6.80;3.90;;;;;;;27.24;50.30;98873.83;78310;1301;3050362;-74
2023/07/31 08:17:50;;;;;;;6.90;3.90;;;;;;;27.17;50.45;98877.27;79605;1301;3013319;-71
2023/07/31 08:20:17;;;;;;;9.70;4.20;;;;;;;27.26;49.90;98869.50;79541;1296;3011605;-67
2023/07/31 08:22:45;;;;;;;4.20;3.20;;;;;;;27.38;49.56;98873.77;78317;1298;3026157;-69
2023/07/31 08:25:11;;;;;;;9.60;3.90;;;;;;;27.45;49.66;98874.94;79477;1296;3018572;-71
2023/07/31 08:27:38;;;;;;;9.50;3.30;;;;;;;27.43;49.08;98870.34;79472;1298;3012050;-71
2023/07/31 08:30:06;;;;;;;7.70;3.80;;;;;;;27.49;49.12;98867.81;78321;1298;3026647;-68
2023/07/31 08:32:33;;;;;;;5.60;3.50;;;;;;;27.54;48.77;98864.66;79613;1301;3013108;-71
2023/07/31 08:35:00;;;;;;;5.10;3.30;;;;;;;27.63;49.17;98866.18;79480;1300;3011602;-70
2023/07/31 08:37:28;;;;;;;3.30;3.00;;;;;;;27.67;49.13;98865.73;78332;1297;3050006;-66
2023/07/31 08:39:54;;;;;;;8.90;3.10;;;;;;;27.65;48.53;98866.98;79465;1296;3013609;-73
2023/07/31 08:42:21;;;;;;;4.60;3.70;;;;;;;27.68;48.17;98868.14;79374;1299;3011657;-70
2023/07/31 08:44:49;;;;;;;4.50;3.30;;;;;;;27.76;48.57;98864.13;78210;1300;3028624;-67
2023/07/31 08:47:15;;;;;;;5.20;3.20;;;;;;;27.83;48.44;98865.85;79383;1301;3012898;-68
2023/07/31 08:49:42;;;;;;;6.10;3.70;;;;;;;27.97;48.48;98865.82;79335;1302;3013830;-70
2023/07/31 08:52:10;;;;;;;4.60;3.00;;;;;;;28.05;48.41;98869.93;78233;1298;3027541;-71
2023/07/31 08:54:36;;;;;;;5.20;3.20;;;;;;;28.03;47.00;98870.10;79482;1297;3012869;-71
2023/07/31 08:57:03;;;;;;;6.20;2.90;;;;;;;27.96;46.84;98870.02;79597;1300;3011797;-69
2023/07/31 08:59:31;;;;;;;3.60;3.00;;;;;;;27.94;47.04;98866.21;78356;1297;3049449;-71
2023/07/31 09:02:01;;;;;;;6.00;3.50;;;;;;;28.07;47.11;98861.33;79444;1302;3019286;-72
2023/07/31 09:04:30;;;;;;;3.10;2.50;;;;;;;28.07;47.83;98869.25;79154;1298;3011577;-72
2023/07/31 09:06:58;;;;;;;3.50;2.60;;;;;;;28.07;46.94;98869.37;79872;1299;3013079;-68
2023/07/31 09:09:25;;;;;;;4.40;2.80;;;;;;;28.08;46.79;98868.16;79553;1299;3011786;-71
2023/07/31 09:11:52;;;;;;;7.70;3.30;;;;;;;28.18;46.35;98870.02;78279;1296;3049042;-72
2023/07/31 09:14:19;;;;;;;5.90;3.20;;;;;;;28.36;46.94;98865.27;79447;1301;3020956;-67
2023/07/31 09:16:55;;;;;;;5.20;2.90;;;;;;;28.42;46.23;98866.24;79627;1299;3013808;-70
2023/07/31 09:19:27;;;;;;;3.80;2.80;;;;;;;28.25;45.36;98868.38;78484;1301;3051781;-74
2023/07/31 09:21:54;;;;;;;5.40;3.00;;;;;;;28.33;45.31;98863.55;79782;1296;3013289;-69
2023/07/31 09:24:39;;;;;;;6.80;2.70;;;;;;;28.36;44.46;98866.63;78802;1298;3026461;-70
2023/07/31 09:27:07;;;;;;;7.90;2.80;;;;;;;28.51;45.34;98869.44;78254;1294;3056497;-66
2023/07/31 09:29:34;;;;;;;4.30;2.80;;;;;;;28.63;45.42;98869.45;79695;1295;3013295;-71
2023/07/31 09:32:00;;;;;;;4.00;2.70;;;;;;;28.75;44.49;98867.65;79445;1301;3011616;-71
2023/07/31 09:34:30;;;;;;;3.30;2.50;;;;;;;28.92;44.20;98868.02;78222;1298;3028379;-69
2023/07/31 09:36:58;;;;;;;3.40;2.10;;;;;;;28.84;44.35;98870.27;79706;1299;3011705;-71
2023/07/31 09:39:27;;;;;;;6.40;2.90;;;;;;;28.79;44.49;98869.64;78961;1295;3011919;-68
2023/07/31 09:41:54;;;;;;;5.00;3.10;;;;;;;28.80;45.13;98866.21;79453;1298;3013279;-67
2023/07/31 09:44:21;;;;;;;5.30;3.50;;;;;;;29.06;45.00;98861.67;79631;1296;3011930;-70
2023/07/31 09:46:49;;;;;;;4.00;2.70;;;;;;;29.12;44.28;98861.69;78295;1295;3053049;-70
2023/07/31 09:49:16;;;;;;;4.90;2.40;;;;;;;29.03;42.30;98864.17;79478;1300;3014523;-69
2023/07/31 09:51:42;;;;;;;6.30;2.90;;;;;;;29.13;42.65;98861.55;79746;1298;3012201;-76
2023/07/31 09:54:14;;;;;;;3.90;2.90;;;;;;;29.18;43.59;98864.93;78345;1295;3069992;-64
2023/07/31 09:56:43;;;;;;;5.10;3.10;;;;;;;29.06;43.42;98867.14;79576;1297;3011561;-75
2023/07/31 09:59:13;;;;;;;9.90;3.00;;;;;;;29.22;43.60;98857.73;78328;1295;3054911;-73
2023/07/31 10:01:40;;;;;;;5.70;2.70;;;;;;;29.14;43.21;98859.98;79588;1296;3012907;-69
2023/07/31 10:04:08;;;;;;;3.70;2.80;;;;;;;29.03;42.98;98863.16;79477;1296;3013273;-75
2023/07/31 10:06:36;;;;;;;5.00;3.10;;;;;;;28.95;43.38;98854.04;78286;1298;3052783;-65
2023/07/31 10:09:11;;;;;;;7.20;3.10;;;;;;;29.11;43.56;98858.84;79604;1298;3013688;-70
2023/07/31 10:11:43;;;;;;;4.20;2.70;;;;;;;29.23;42.95;98855.60;78243;1297;3051649;-69
2023/07/31 10:16:28;;;;;;;3.90;2.90;;;;;;;29.20;43.03;98848.23;80264;1304;3013654;-70
2023/07/31 10:18:55;;;;;;;3.80;2.80;;;;;;;29.42;43.02;98852.87;79411;1305;3013395;-71
2023/07/31 10:21:21;;;;;;;5.20;3.20;;;;;;;29.44;42.88;98847.98;79145;1305;3012941;-69
2023/07/31 10:23:50;;;;;;;5.50;2.90;;;;;;;29.50;43.46;98842.11;77966;1304;3028594;-72
2023/07/31 10:26:17;;;;;;;5.70;3.00;;;;;;;29.58;43.34;98836.31;79155;1305;3012987;-67
2023/07/31 10:28:47;;;;;;;7.80;2.90;;;;;;;29.54;43.96;98839.20;77732;1301;3011389;-68
2023/07/31 10:31:13;;;;;;;5.50;2.90;;;;;;;29.46;43.52;98843.01;79712;1298;3013177;-65
2023/07/31 10:33:40;;;;;;;7.00;3.20;;;;;;;29.60;43.06;98840.45;79344;1299;3011655;-71
2023/07/31 10:36:17;;;;;;;5.10;3.20;;;;;;;29.65;42.88;98842.50;78220;1303;3026724;-68
2023/07/31 10:38:48;;;;;;;4.70;2.90;;;;;;;29.75;43.31;98839.34;78138;1303;3053349;-70
2023/07/31 10:41:14;;;;;;;5.00;2.90;;;;;;;29.70;43.27;98842.25;79606;1302;3011818;-68
2023/07/31 10:43:46;;;;;;;3.50;2.90;;;;;;;29.78;43.25;98836.54;78993;1300;3011356;-71
2023/07/31 10:46:13;;;;;;;3.70;2.80;;;;;;;29.82;43.32;98833.10;79440;1304;3011410;-68
2023/07/31 10:48:41;;;;;;;3.00;2.70;;;;;;;29.73;43.36;98830.20;79531;1298;3011728;-71
2023/07/31 10:51:12;;;;;;;4.20;2.70;;;;;;;29.65;43.38;98829.39;78217;1301;3053243;-71
2023/07/31 10:53:40;;;;;;;4.00;2.80;;;;;;;29.82;42.47;98826.77;79555;1300;3011923;-71
2023/07/31 10:56:09;;;;;;;3.60;2.70;;;;;;;30.08;42.79;98822.10;78235;1300;3026926;-71
2023/07/31 10:58:36;;;;;;;6.00;2.60;;;;;;;30.08;42.28;98824.98;79598;1301;3013566;-70
2023/07/31 11:01:04;;;;;;;4.60;3.00;;;;;;;30.23;41.77;98815.05;79550;1300;3011867;-74
2023/07/31 11:03:46;;;;;;;7.00;2.70;;;;;;;30.09;41.84;98823.57;78538;1296;3057437;-69
2023/07/31 11:06:14;;;;;;;8.10;3.00;;;;;;;30.05;42.01;98823.92;78393;1298;3050833;-71
2023/07/31 11:08:42;;;;;;;3.50;2.40;;;;;;;30.12;40.73;98821.85;79427;1311;3013242;-70
2023/07/31 11:11:10;;;;;;;4.40;2.90;;;;;;;30.31;40.47;98820.31;79492;1296;3011522;-71
2023/07/31 11:13:52;;;;;;;7.40;2.90;;;;;;;30.39;41.15;98814.30;78320;1301;3053343;-64
2023/07/31 11:16:21;;;;;;;4.80;2.80;;;;;;;30.36;40.92;98818.10;78325;1301;3068173;-65
2023/07/31 11:18:48;;;;;;;5.50;2.80;;;;;;;30.39;41.40;98812.84;79481;1298;3013637;-68
2023/07/31 11:21:16;;;;;;;4.30;2.50;;;;;;;30.21;42.09;98812.80;79445;1296;3011951;-72
2023/07/31 11:23:47;;;;;;;2.40;2.20;;;;;;;30.18;41.28;98815.06;78233;1300;3052557;-69
2023/07/31 11:26:14;;;;;;;3.20;2.30;;;;;;;30.49;40.71;98810.62;79333;1301;3012291;-68
2023/07/31 11:28:44;;;;;;;6.60;3.10;;;;;;;30.76;39.98;98811.86;78191;1301;3026464;-66
2023/07/31 11:31:11;;;;;;;3.70;2.50;;;;;;;30.95;39.78;98806.86;79429;1300;3011964;-65
2023/07/31 11:33:39;;;;;;;8.10;2.00;;;;;;;30.79;39.48;98808.16;78967;1301;3011653;-67
2023/07/31 11:36:17;;;;;;;6.00;3.20;;;;;;;30.71;38.41;98813.89;79479;1300;3019222;-70
2023/07/31 11:38:45;;;;;;;4.60;2.60;;;;;;;30.74;38.22;98818.50;78278;1296;3049550;-68
2023/07/31 11:41:13;;;;;;;5.00;2.40;;;;;;;30.82;37.49;98817.79;79438;1301;3013411;-68
2023/07/31 11:43:40;;;;;;;4.70;2.30;;;;;;;30.78;36.60;98817.62;79444;1301;3013900;-66
2023/07/31 11:46:09;;;;;;;5.00;2.60;;;;;;;30.90;38.18;98812.91;78382;1297;3053672;-71
2023/07/31 11:48:36;;;;;;;6.90;2.30;;;;;;;31.07;38.62;98806.98;79449;1300;3013083;-71
2023/07/31 11:51:04;;;;;;;5.20;2.40;;;;;;;31.25;38.13;98812.92;79336;1298;3011576;-67
2023/07/31 11:53:50;;;;;;;3.60;2.40;;;;;;;31.18;36.73;98812.52;78417;1301;3049789;-69
2023/07/31 11:56:18;;;;;;;5.50;2.50;;;;;;;31.32;36.96;98808.54;78163;1303;3054021;-69
2023/07/31 11:58:50;;;;;;;3.40;2.70;;;;;;;31.17;38.52;98811.64;79467;1301;3014324;-66
2023/07/31 12:01:19;;;;;;;3.10;2.30;;;;;;;31.00;39.10;98807.79;78240;1301;3053545;-67
2023/07/31 12:03:46;;;;;;;5.70;2.60;;;;;;;31.26;38.89;98803.44;79528;1298;3013388;-71
2023/07/31 12:06:13;;;;;;;4.10;2.60;;;;;;;31.49;39.22;98802.13;79431;1301;3011663;-71
2023/07/31 12:08:40;;;;;;;3.90;2.50;;;;;;;31.58;38.93;98803.60;78141;1299;3047857;-68
2023/07/31 12:11:09;;;;;;;3.40;2.40;;;;;;;31.77;37.75;98808.80;79435;1301;3014156;-68
2023/07/31 12:13:36;;;;;;;4.30;2.20;;;;;;;31.73;36.05;98808.58;79514;1295;3013268;-67
2023/07/31 12:16:04;;;;;;;3.20;2.20;;;;;;;31.46;35.70;98814.73;78140;1301;3053300;-67
2023/07/31 12:18:34;;;;;;;3.80;2.30;;;;;;;31.33;36.03;98803.67;79586;1300;3013047;-70
2023/07/31 12:21:04;;;;;;;2.90;2.40;;;;;;;31.60;36.16;98799.95;78204;1300;3056402;-69
2023/07/31 12:23:31;;;;;;;2.60;2.20;;;;;;;31.73;36.16;98805.27;79531;1301;3014176;-73
2023/07/31 12:26:09;;;;;;;8.10;2.40;;;;;;;31.88;35.34;98799.73;79444;1297;3011945;-71
2023/07/31 12:28:46;;;;;;;4.60;2.50;;;;;;;32.07;35.18;98796.75;78225;1301;3053278;-72
2023/07/31 12:31:20;;;;;;;3.20;2.50;;;;;;;32.21;34.92;98797.00;78212;1300;3052765;-72
2023/07/31 12:33:48;;;;;;;2.70;2.40;;;;;;;32.31;35.19;98800.68;79423;1300;3011668;-72
2023/07/31 12:36:17;;;;;;;7.20;2.50;;;;;;;32.20;34.90;98798.90;78317;1300;3042403;-72
2023/07/31 12:38:44;;;;;;;4.20;2.60;;;;;;;32.23;35.73;98803.30;79384;1298;3012914;-68
2023/07/31 12:41:11;;;;;;;4.30;2.60;;;;;;;32.42;35.69;98796.52;79421;1300;3011607;-70
2023/07/31 12:43:40;;;;;;;4.50;2.60;;;;;;;32.57;36.06;98796.64;78183;1300;3050644;-77
2023/07/31 12:46:09;;;;;;;3.60;2.50;;;;;;;32.68;36.77;98798.80;79493;1300;3013686;-75
2023/07/31 12:48:37;;;;;;;4.50;2.60;;;;;;;32.77;36.32;98800.81;78163;1298;3068987;-71
2023/07/31 12:51:04;;;;;;;3.20;2.40;;;;;;;32.72;36.39;98799.77;79476;1300;3011960;-68
2023/07/31 12:53:30;;;;;;;5.10;2.80;;;;;;;32.70;35.84;98802.17;79378;1296;3011912;-69
2023/07/31 12:55:58;;;;;;;4.90;2.70;;;;;;;32.75;35.68;98793.83;78155;1300;3028673;-73
2023/07/31 12:58:25;;;;;;;6.00;3.20;;;;;;;32.64;36.55;98799.17;79376;1301;3013593;-74
2023/07/31 13:00:52;;;;;;;7.20;2.90;;;;;;;32.45;37.35;98799.59;79403;1300;3011522;-73
2023/07/31 13:03:19;;;;;;;3.40;2.60;;;;;;;32.20;37.68;98795.75;78241;1300;3026312;-71
2023/07/31 13:05:46;;;;;;;3.70;2.70;;;;;;;32.08;38.03;98795.72;79421;1300;3020585;-71
2023/07/31 13:08:15;;;;;;;6.80;2.80;;;;;;;31.67;38.00;98795.05;79377;1298;3011889;-77
2023/07/31 13:10:43;;;;;;;6.90;3.20;;;;;;;31.40;38.76;98787.55;78261;1296;3052809;-74
2023/07/31 13:13:10;;;;;;;6.00;2.60;;;;;;;31.37;39.21;98787.88;79410;1301;3011422;-76
2023/07/31 13:15:37;;;;;;;4.80;3.10;;;;;;;31.32;39.18;98788.14;79446;1300;3011827;-72
2023/07/31 13:18:05;;;;;;;7.30;3.10;;;;;;;31.42;38.66;98784.23;78258;1298;3028988;-72
2023/07/31 13:20:31;;;;;;;5.80;2.70;;;;;;;31.73;37.39;98784.84;79422;1296;3013011;-75
2023/07/31 13:22:57;;;;;;;3.00;2.60;;;;;;;32.14;37.45;98782.61;79433;1296;3012903;-69
2023/07/31 13:25:25;;;;;;;6.40;2.90;;;;;;;32.44;36.28;98781.34;78203;1298;3025843;-73
2023/07/31 13:27:52;;;;;;;3.80;2.70;;;;;;;32.78;35.71;98779.99;79589;1297;3013537;-71
2023/07/31 13:30:18;;;;;;;5.70;2.60;;;;;;;32.97;35.60;98782.64;79453;1298;3011589;-71
2023/07/31 13:32:46;;;;;;;3.60;2.60;;;;;;;33.11;35.38;98774.16;78262;1296;3028567;-70
2023/07/31 13:35:13;;;;;;;4.70;2.50;;;;;;;33.30;34.52;98771.90;79462;1298;3013392;-68
2023/07/31 13:37:40;;;;;;;6.50;2.80;;;;;;;33.38;34.73;98774.59;79524;1300;3013244;-74
2023/07/31 13:40:08;;;;;;;2.80;2.40;;;;;;;33.44;35.02;98775.84;78255;1300;3026205;-74
2023/07/31 13:42:35;;;;;;;3.50;2.80;;;;;;;33.54;34.68;98773.58;79520;1297;3013703;-73
2023/07/31 13:45:02;;;;;;;3.00;2.70;;;;;;;33.74;34.67;98774.75;79494;1301;3011677;-67
2023/07/31 13:47:31;;;;;;;3.30;3.00;;;;;;;33.89;34.68;98768.73;78176;1300;3069236;-74
2023/07/31 13:49:57;;;;;;;5.90;3.00;;;;;;;33.88;34.53;98771.64;79734;1299;3012803;-73
2023/07/31 13:52:24;;;;;;;3.60;2.70;;;;;;;34.10;33.97;98773.83;79401;1296;3014177;-72
2023/07/31 13:54:52;;;;;;;7.80;2.90;;;;;;;34.41;33.45;98765.38;78250;1300;3046147;-73
2023/07/31 13:57:18;;;;;;;6.30;2.70;;;;;;;34.61;33.06;98767.14;79405;1297;3012989;-71
2023/07/31 13:59:45;;;;;;;3.10;2.60;;;;;;;34.48;31.63;98772.77;79623;1297;3011422;-68
2023/07/31 14:02:13;;;;;;;3.00;2.50;;;;;;;34.36;30.86;98772.34;78285;1297;3025465;-72
2023/07/31 14:04:40;;;;;;;2.90;2.50;;;;;;;34.36;30.98;98767.49;79427;1297;3013270;-69
2023/07/31 14:07:06;;;;;;;3.70;2.70;;;;;;;34.42;30.74;98761.56;79455;1297;3013426;-71
2023/07/31 14:09:34;;;;;;;3.70;2.70;;;;;;;34.63;30.16;98762.89;78344;1298;3052473;-71
2023/07/31 14:12:00;;;;;;;2.90;2.60;;;;;;;34.77;30.36;98763.95;79551;1300;3013515;-76
2023/07/31 14:14:27;;;;;;;2.80;2.60;;;;;;;34.88;30.44;98763.40;79450;1297;3013566;-75
2023/07/31 14:16:55;;;;;;;4.80;2.50;;;;;;;35.10;30.25;98762.67;78224;1298;3028133;-76
2023/07/31 14:19:21;;;;;;;3.50;2.40;;;;;;;35.29;29.94;98763.45;79622;1296;3012708;-75
2023/07/31 14:21:48;;;;;;;5.00;2.40;;;;;;;35.23;29.24;98769.02;79410;1297;3011611;-74
2023/07/31 14:24:16;;;;;;;3.90;2.60;;;;;;;35.03;29.84;98762.17;78210;1299;3027391;-75
2023/07/31 14:26:42;;;;;;;3.40;2.50;;;;;;;34.92;29.93;98758.55;79398;1301;3013097;-73
2023/07/31 14:29:09;;;;;;;2.50;2.30;;;;;;;34.86;30.17;98760.84;79495;1300;3011535;-73
2023/07/31 14:31:36;;;;;;;5.10;2.50;;;;;;;34.93;30.20;98757.58;78218;1296;3026001;-70